Midland, MI (48641)

4:01 PM EDT on June 26, 2017 (GMT -0400)
Meadowbrook @ Chatham | | Change Station
Active Advisory: Flood Warning

Elev 636 ft 43.64 °N, 84.22 °W | Updated 3 seconds ago

Mostly Cloudy
Mostly Cloudy
64.6 °F
Feels Like 64.6 °F
N
0.2
Wind Variable Wind from WSW
Gusts 2.5 mph

Today
High -- | Low -- °F
--% Chance of Precip.
Yesterday
High -- | Low -- °F
Precip. -- in
Pressure 29.95 in
Visibility 10.0 miles
Clouds Scattered Clouds 5000 ft
Scattered Clouds 6500 ft
Mostly Cloudy 9000 ft
Dew Point 51 °F
Humidity 61%
Rainfall in
Snow Depth Not available.
5:57 AM 9:22 PM
Waxing Crescent, 11% visible
METAR KIKW 261952Z AUTO 26008G14KT 10SM SCT050 SCT065 BKN090 19/06 A2995 RMK AO2 T01920064
Pressure 29.95 in
Visibility 10.0 miles
Clouds Scattered Clouds 5000 ft
Scattered Clouds 6500 ft
Mostly Cloudy 9000 ft
Dew Point 51 °F
Humidity 61%
Rainfall in
Snow Depth Not available.
5:57 AM 9:22 PM
Waxing Crescent, 11% visible
METAR KIKW 261952Z AUTO 26008G14KT 10SM SCT050 SCT065 BKN090 19/06 A2995 RMK AO2 T01920064

Get Your Daily Forecast Email!

Thanks for signing up!

Be on the lookout for a verification email in your inbox.

You'll start receiving severe weather alerts in your inbox..

×

10-Day Weather Forecast

Almanac

Astronomy

Jun. 26, 2017 Rise Set
Actual Time
Civil Twilight
Nautical Twilight
Astronomical Twilight
Moon
Length of Visible Light
Length of Day
Tomorrow will be .
, % of the Moon is Illuminated

Today's Extremes

State Highs State Lows

Community

WunderPhotos

Category 6

Welcome to Category 6. This is the collective home for Weather Underground's featured writeups by Dr. Jeff Masters (right), Bob Henson (left), Chris Burt, and other regular contributors.

Nearby

Air Quality

  Air Quality AQ Index Pollutant
Not available.

Snow Depth

Station Depth Elevation

Earthquake Activity

City Distance Mag. Time & Date
Minimum magnitude displayed is 2.5.

Coastal Water Temperatures

Place Temperature

Stations

Nearby Weather Stations

Station Location Temp. Windchill Dew Point Humidity Wind Precip. Elev Updated Type
                   

Watches & Warnings

Flood Warning
Issued: 9:56 AM EDT Jun. 26, 2017 – National Weather Service

A Flood Warning continues for
Tittabawassee river from Midland downstream into Saginaw.
* From now until further notice.
* At 10 am Monday the stage is 26.9 feet and falling.
* Flood stage is 24.0 feet.
* Moderate flooding is occurring.
* Forecast... the river should fall below flood stage after midnight.



Lat... Lon 4366 8438 4367 8432 4362 8421 4344 8398
      4341 8401 4360 8427